Terminal Aerodrome Forecast
Issued by NWS

Home | Current Version | Previous Version | Text Only | Print | Product List | Glossary On
Versions: 1 2 3 4 5 6 7 8 9 10 11 12 13 14 15 16
000
FTUS46 KPDT 062320
TAFDLS
TAF
KDLS 062320Z 0700/0724 30010KT P6SM VCSH BKN060 OVC100
     FM070400 30012KT P6SM FEW060 BKN100
     FM071200 31008KT P6SM SCT080
     FM072100 33011KT P6SM FEW080=

USA.gov is the U.S. government's official web portal to all federal, state and local government web resources and services.